createdAt,value
2019-03-31T00:01:39.013Z,37.80
2019-03-31T00:04:12.239Z,37.10
2019-03-31T00:06:45.512Z,37.10
2019-03-31T00:09:18.833Z,37.00
2019-03-31T00:11:52.096Z,37.00
2019-03-31T00:14:25.323Z,36.80
2019-03-31T00:16:58.507Z,36.80
2019-03-31T00:19:31.750Z,36.80
2019-03-31T00:22:05.041Z,36.80
2019-03-31T00:24:38.268Z,36.80
2019-03-31T00:27:11.517Z,36.80
2019-03-31T00:29:44.760Z,37.50
2019-03-31T00:32:18.006Z,37.50
2019-03-31T00:34:51.241Z,36.90
2019-03-31T00:37:24.438Z,37.00
2019-03-31T00:39:57.674Z,37.10
2019-03-31T00:42:30.924Z,37.20
2019-03-31T00:45:04.182Z,37.20
2019-03-31T00:47:37.607Z,38.00
2019-03-31T00:50:10.846Z,37.20
2019-03-31T00:52:44.115Z,37.20
2019-03-31T00:55:17.447Z,37.20
2019-03-31T00:57:50.697Z,37.20
2019-03-31T01:00:41.545Z,37.20
2019-03-31T01:03:16.408Z,37.30
2019-03-31T01:05:49.637Z,37.30
2019-03-31T01:08:23.234Z,37.30
2019-03-31T01:10:57.528Z,37.40
2019-03-31T01:13:30.927Z,37.40
2019-03-31T01:16:04.329Z,37.50
2019-03-31T01:18:38.181Z,37.50
2019-03-31T01:21:11.473Z,37.60
2019-03-31T01:23:44.941Z,37.70
2019-03-31T01:26:20.997Z,37.70
2019-03-31T01:28:54.996Z,37.70
2019-03-31T01:31:50.530Z,37.80
2019-03-31T01:34:22.744Z,37.80
2019-03-31T01:36:55.980Z,37.90
2019-03-31T01:39:31.447Z,37.90
2019-03-31T01:42:04.677Z,38.00
2019-03-31T01:44:37.931Z,38.00
2019-03-31T01:47:11.881Z,38.00
2019-03-31T01:49:45.208Z,38.00
2019-03-31T01:52:18.510Z,38.00
2019-03-31T01:54:52.082Z,37.90
2019-03-31T01:57:25.296Z,38.10
2019-03-31T01:59:58.554Z,38.00
2019-03-31T02:02:31.781Z,37.90
2019-03-31T02:05:05.742Z,37.90
2019-03-31T02:07:40.141Z,37.90
2019-03-31T02:10:13.393Z,37.90
2019-03-31T02:12:46.605Z,38.00
2019-03-31T02:15:21.023Z,38.00
2019-03-31T02:17:54.248Z,37.90
2019-03-31T02:20:27.498Z,37.90
2019-03-31T02:23:00.740Z,37.90
2019-03-31T02:25:33.993Z,37.90
2019-03-31T02:28:07.220Z,37.90
2019-03-31T02:30:40.495Z,37.90
2019-03-31T02:33:13.645Z,37.90
2019-03-31T02:35:46.903Z,38.00
2019-03-31T02:38:20.140Z,38.00
2019-03-31T02:40:53.384Z,38.00
2019-03-31T02:43:26.619Z,38.20
2019-03-31T02:45:59.872Z,38.30
2019-03-31T02:48:33.109Z,38.20
2019-03-31T02:51:06.306Z,38.10
2019-03-31T02:53:39.558Z,38.10
2019-03-31T02:56:12.847Z,38.10
2019-03-31T02:58:46.098Z,38.20
2019-03-31T03:01:19.338Z,38.30
2019-03-31T03:03:52.587Z,38.10
2019-03-31T03:06:26.251Z,38.10
2019-03-31T03:09:01.070Z,38.70
2019-03-31T03:11:36.425Z,37.90
2019-03-31T03:14:09.651Z,37.90
2019-03-31T03:16:42.905Z,38.00
2019-03-31T03:19:16.113Z,38.00
2019-03-31T03:21:49.453Z,38.00
2019-03-31T03:24:22.649Z,38.00
2019-03-31T03:26:56.122Z,37.90
2019-03-31T03:29:29.416Z,38.00
2019-03-31T03:32:03.729Z,38.10
2019-03-31T03:34:37.001Z,38.10
2019-03-31T03:37:10.263Z,38.10
2019-03-31T03:39:43.478Z,38.10
2019-03-31T03:42:16.724Z,38.20
2019-03-31T03:44:49.951Z,38.30
2019-03-31T03:47:23.211Z,38.30
2019-03-31T03:49:56.439Z,38.40
2019-03-31T03:52:29.681Z,38.40
2019-03-31T03:55:02.912Z,38.30
2019-03-31T03:57:36.163Z,38.40
2019-03-31T04:00:09.416Z,38.50
2019-03-31T04:02:42.681Z,38.50
2019-03-31T04:05:15.886Z,38.60
2019-03-31T04:07:49.133Z,38.60
2019-03-31T04:11:21.831Z,38.60
2019-03-31T04:13:55.434Z,38.60
2019-03-31T04:16:28.700Z,38.50
2019-03-31T04:19:01.935Z,38.60
2019-03-31T04:21:35.164Z,38.60
2019-03-31T04:24:08.394Z,38.60
2019-03-31T04:26:41.646Z,38.60
2019-03-31T04:29:14.879Z,38.40
2019-03-31T04:31:48.132Z,38.40
2019-03-31T04:34:21.266Z,38.20
2019-03-31T04:36:54.499Z,38.40
2019-03-31T04:39:27.723Z,38.30
2019-03-31T04:42:00.971Z,38.30
2019-03-31T04:44:34.196Z,38.20
2019-03-31T04:47:07.444Z,38.30
2019-03-31T04:49:40.710Z,38.40
2019-03-31T04:52:13.948Z,38.50
2019-03-31T04:54:47.213Z,38.60
2019-03-31T04:57:20.424Z,38.50
2019-03-31T04:59:53.677Z,38.60
2019-03-31T05:02:27.445Z,38.70
2019-03-31T05:05:00.855Z,38.70
2019-03-31T05:07:34.136Z,38.60
2019-03-31T05:10:07.703Z,38.70
2019-03-31T05:12:40.915Z,38.60
2019-03-31T05:15:15.230Z,38.60
2019-03-31T05:17:48.448Z,38.60
2019-03-31T05:20:21.689Z,38.60
2019-03-31T05:23:03.814Z,38.70
2019-03-31T05:25:37.339Z,38.80
2019-03-31T05:28:10.571Z,38.80
2019-03-31T05:30:43.800Z,38.90
2019-03-31T05:33:17.146Z,39.00
2019-03-31T05:35:50.394Z,39.00
2019-03-31T05:38:23.990Z,39.00
2019-03-31T05:40:57.163Z,39.00
2019-03-31T05:43:30.402Z,39.10
2019-03-31T05:46:03.625Z,39.10
2019-03-31T05:48:36.858Z,39.20
2019-03-31T05:51:10.089Z,39.30
2019-03-31T05:53:43.390Z,39.40
2019-03-31T05:56:16.659Z,39.50
2019-03-31T05:58:49.957Z,39.50
2019-03-31T06:01:31.649Z,39.60
2019-03-31T06:04:04.954Z,39.70
2019-03-31T06:06:39.276Z,39.60
2019-03-31T06:09:13.568Z,39.60
2019-03-31T06:11:46.898Z,39.70
2019-03-31T06:14:20.112Z,39.90
2019-03-31T06:16:53.362Z,40.10
2019-03-31T06:19:26.588Z,40.00
2019-03-31T06:21:59.753Z,40.10
2019-03-31T06:24:33.096Z,40.10
2019-03-31T06:27:06.342Z,40.20
2019-03-31T06:29:39.604Z,40.30
2019-03-31T06:32:13.028Z,40.30
2019-03-31T06:34:47.650Z,40.30
2019-03-31T06:37:21.279Z,40.40
2019-03-31T06:39:54.660Z,40.50
2019-03-31T06:42:28.012Z,40.50
2019-03-31T06:45:01.268Z,40.40
2019-03-31T06:47:34.536Z,40.60
2019-03-31T06:50:08.466Z,41.00
2019-03-31T06:52:41.748Z,41.10
2019-03-31T06:55:15.098Z,41.20
2019-03-31T06:57:55.022Z,41.30
2019-03-31T07:00:27.466Z,41.50
2019-03-31T07:03:00.710Z,41.50
2019-03-31T07:05:33.923Z,41.60
2019-03-31T07:08:07.249Z,41.70
2019-03-31T07:10:40.544Z,42.00
2019-03-31T07:13:13.780Z,41.90
2019-03-31T07:15:46.998Z,42.00
2019-03-31T07:18:20.242Z,42.00
2019-03-31T07:20:53.465Z,42.20
2019-03-31T07:23:26.715Z,42.50
2019-03-31T07:25:59.928Z,42.50
2019-03-31T07:28:33.190Z,42.50
2019-03-31T07:31:06.481Z,42.60
2019-03-31T07:33:39.647Z,42.50
2019-03-31T07:36:13.826Z,42.50
2019-03-31T07:38:47.079Z,42.70
2019-03-31T07:41:20.270Z,42.70
2019-03-31T07:43:53.500Z,42.70
2019-03-31T07:46:26.722Z,42.70
2019-03-31T07:48:59.968Z,42.60
2019-03-31T07:51:33.186Z,42.70
2019-03-31T07:54:06.350Z,43.40
2019-03-31T07:56:39.583Z,42.80
2019-03-31T07:59:12.879Z,43.00
2019-03-31T08:01:46.160Z,42.80
2019-03-31T08:04:19.396Z,42.80
2019-03-31T08:06:52.615Z,42.60
2019-03-31T08:09:25.784Z,42.50
2019-03-31T08:11:59.005Z,42.80
2019-03-31T08:14:32.353Z,43.30
2019-03-31T08:17:05.616Z,43.00
2019-03-31T08:19:38.852Z,43.30
2019-03-31T08:22:12.072Z,43.20
2019-03-31T08:24:45.371Z,43.00
2019-03-31T08:27:18.588Z,43.00
2019-03-31T08:30:00.058Z,42.70
2019-03-31T08:32:28.412Z,42.70
2019-03-31T08:35:01.713Z,42.50
2019-03-31T08:37:36.008Z,42.70
2019-03-31T08:40:11.547Z,42.40
2019-03-31T08:42:44.792Z,42.90
2019-03-31T08:45:18.155Z,42.70
2019-03-31T08:47:51.299Z,42.50
2019-03-31T08:50:24.544Z,42.30
2019-03-31T08:52:57.759Z,42.00
2019-03-31T08:55:31.024Z,41.60
2019-03-31T08:58:04.265Z,41.50
2019-03-31T09:00:47.871Z,41.10
2019-03-31T09:03:21.084Z,40.70
2019-03-31T09:06:01.814Z,40.90
2019-03-31T09:08:29.255Z,41.10
2019-03-31T09:11:02.490Z,40.60
2019-03-31T09:13:35.704Z,40.60
2019-03-31T09:16:08.934Z,40.50
2019-03-31T09:18:42.152Z,40.20
2019-03-31T09:21:15.411Z,39.90
2019-03-31T09:23:48.647Z,39.90
2019-03-31T09:26:21.865Z,39.90
2019-03-31T09:28:55.116Z,40.00
2019-03-31T09:31:28.328Z,39.60
2019-03-31T09:34:01.581Z,39.70
2019-03-31T09:36:34.797Z,39.30
2019-03-31T09:39:08.553Z,39.80
2019-03-31T09:41:41.750Z,38.90
2019-03-31T09:44:14.995Z,38.40
2019-03-31T09:46:48.226Z,38.20
2019-03-31T09:49:21.530Z,37.30
2019-03-31T09:51:54.731Z,36.90
2019-03-31T09:54:27.998Z,36.80
2019-03-31T09:57:01.247Z,35.60
2019-03-31T09:59:34.474Z,35.00
2019-03-31T10:02:07.696Z,34.20
2019-03-31T10:04:40.946Z,33.60
2019-03-31T10:07:14.198Z,33.00
2019-03-31T10:09:47.523Z,32.70
2019-03-31T10:12:20.737Z,32.70
2019-03-31T10:14:54.358Z,32.30
2019-03-31T10:17:27.663Z,31.10
2019-03-31T10:20:00.893Z,30.60
2019-03-31T10:22:34.167Z,30.30
2019-03-31T10:25:08.424Z,29.80
2019-03-31T10:27:41.727Z,29.70
2019-03-31T10:30:18.875Z,29.10
2019-03-31T10:32:52.083Z,28.70
2019-03-31T10:35:25.341Z,28.70
2019-03-31T10:37:58.634Z,28.70
2019-03-31T10:40:31.871Z,28.30
2019-03-31T10:43:05.084Z,28.10
2019-03-31T10:45:38.352Z,28.00
2019-03-31T10:48:20.407Z,27.60
2019-03-31T10:50:46.503Z,27.40
2019-03-31T10:53:19.715Z,27.40
2019-03-31T10:55:53.002Z,27.30
2019-03-31T10:58:26.314Z,27.20
2019-03-31T11:00:59.559Z,27.10
2019-03-31T11:03:33.207Z,26.60
2019-03-31T11:06:06.656Z,26.40
2019-03-31T11:08:39.970Z,26.30
2019-03-31T11:11:13.210Z,26.20
2019-03-31T11:13:46.356Z,26.30
2019-03-31T11:16:19.593Z,25.90
2019-03-31T11:18:52.798Z,25.70
2019-03-31T11:21:44.017Z,25.90
2019-03-31T11:24:17.164Z,26.20
2019-03-31T11:26:50.409Z,26.30
2019-03-31T11:29:23.631Z,26.00
2019-03-31T11:31:56.965Z,27.10
2019-03-31T11:34:30.171Z,26.90
2019-03-31T11:37:13.483Z,26.70
2019-03-31T11:39:38.333Z,26.50
2019-03-31T11:42:11.627Z,26.30
2019-03-31T11:44:44.835Z,26.30
2019-03-31T11:47:18.111Z,26.60
2019-03-31T11:49:51.263Z,26.40
2019-03-31T11:52:24.908Z,27.10
2019-03-31T11:54:58.150Z,26.70
2019-03-31T11:57:31.382Z,26.90
2019-03-31T12:00:05.515Z,26.60
2019-03-31T12:02:38.823Z,26.70
2019-03-31T12:05:12.082Z,26.90
2019-03-31T12:07:47.142Z,27.20
2019-03-31T12:10:20.379Z,27.10
2019-03-31T12:12:53.663Z,26.90
2019-03-31T12:15:26.946Z,26.90
2019-03-31T12:18:00.181Z,27.00
2019-03-31T12:20:33.386Z,27.00
2019-03-31T12:23:06.748Z,27.00
2019-03-31T12:25:40.004Z,26.90
2019-03-31T12:28:13.256Z,26.70
2019-03-31T12:30:46.457Z,26.60
2019-03-31T12:33:19.693Z,26.70
2019-03-31T12:35:52.907Z,26.90
2019-03-31T12:38:26.150Z,27.00
2019-03-31T12:40:59.407Z,27.10
2019-03-31T12:43:32.659Z,27.30
2019-03-31T12:46:05.960Z,27.30
2019-03-31T12:48:39.201Z,27.10
2019-03-31T12:51:12.410Z,27.30
2019-03-31T12:53:45.704Z,28.10
2019-03-31T12:56:18.962Z,27.80
2019-03-31T12:58:52.207Z,27.40
2019-03-31T13:01:25.442Z,27.50
2019-03-31T13:03:58.724Z,27.40
2019-03-31T13:06:31.961Z,27.40
2019-03-31T13:09:06.328Z,27.60
2019-03-31T13:11:39.562Z,27.60
2019-03-31T13:14:12.764Z,27.20
2019-03-31T13:16:45.928Z,27.30
2019-03-31T13:19:19.147Z,27.30
2019-03-31T13:21:52.480Z,27.20
2019-03-31T13:24:25.688Z,27.40
2019-03-31T13:26:58.938Z,27.80
2019-03-31T13:29:32.195Z,27.50
2019-03-31T13:32:05.632Z,27.40
2019-03-31T13:34:38.868Z,27.60
2019-03-31T13:37:12.075Z,27.60
2019-03-31T13:39:45.310Z,27.50
2019-03-31T13:42:18.527Z,27.50
2019-03-31T13:44:51.763Z,27.40
2019-03-31T13:47:25.067Z,27.30
2019-03-31T13:49:58.285Z,27.30
2019-03-31T13:52:31.525Z,27.20
2019-03-31T13:55:05.219Z,27.20
2019-03-31T13:57:40.144Z,27.00
2019-03-31T14:00:14.310Z,27.00
2019-03-31T14:02:47.589Z,26.80
2019-03-31T14:05:20.793Z,27.10
2019-03-31T14:07:54.030Z,27.00
2019-03-31T14:10:27.370Z,27.10
2019-03-31T14:13:00.586Z,26.90
2019-03-31T14:15:33.906Z,26.80
2019-03-31T14:18:07.132Z,26.90
2019-03-31T14:20:40.363Z,26.90
2019-03-31T14:23:13.607Z,27.20
2019-03-31T14:25:46.839Z,27.10
2019-03-31T14:28:20.100Z,27.10
2019-03-31T14:30:53.279Z,27.10
2019-03-31T14:33:26.488Z,27.10
2019-03-31T14:35:59.713Z,27.20
2019-03-31T14:38:39.891Z,27.00
2019-03-31T14:41:07.892Z,26.90
2019-03-31T14:43:41.098Z,26.80
2019-03-31T14:46:14.339Z,26.90
2019-03-31T14:48:47.556Z,27.00
2019-03-31T14:51:23.480Z,27.30
2019-03-31T14:53:56.686Z,27.30
2019-03-31T14:56:29.956Z,27.10
2019-03-31T14:59:03.176Z,27.00
2019-03-31T15:01:36.403Z,27.00
2019-03-31T15:04:09.620Z,27.10
2019-03-31T15:06:42.851Z,27.20
2019-03-31T15:09:16.062Z,27.20
2019-03-31T15:11:49.234Z,26.90
2019-03-31T15:14:22.453Z,27.10
2019-03-31T15:16:55.697Z,27.00
2019-03-31T15:19:28.919Z,26.90
2019-03-31T15:22:02.162Z,27.00
2019-03-31T15:24:35.372Z,27.00
2019-03-31T15:27:08.612Z,27.30
2019-03-31T15:29:41.823Z,27.20
2019-03-31T15:32:15.067Z,27.30
2019-03-31T15:34:48.278Z,27.10
2019-03-31T15:37:21.530Z,27.10
2019-03-31T15:39:54.763Z,27.10
2019-03-31T15:42:28.080Z,27.10
2019-03-31T15:45:01.221Z,27.40
2019-03-31T15:47:35.636Z,27.80
2019-03-31T15:50:08.834Z,28.20
2019-03-31T15:52:42.088Z,28.30
2019-03-31T15:55:15.325Z,28.20
2019-03-31T15:57:48.586Z,28.10
2019-03-31T16:00:21.803Z,28.40
2019-03-31T16:02:55.029Z,28.20
2019-03-31T16:05:28.283Z,28.40
2019-03-31T16:08:00.749Z,28.40
2019-03-31T16:10:33.200Z,28.50
2019-03-31T16:13:05.615Z,28.20
2019-03-31T16:15:38.103Z,28.10
2019-03-31T16:18:10.536Z,28.20
2019-03-31T16:20:43.015Z,28.30
2019-03-31T16:23:15.443Z,28.70
2019-03-31T16:25:50.506Z,28.70
2019-03-31T16:28:22.920Z,28.60
2019-03-31T16:30:55.311Z,28.50
2019-03-31T16:33:27.737Z,28.60
2019-03-31T16:36:00.122Z,28.40
2019-03-31T16:38:32.561Z,28.50
2019-03-31T16:41:05.076Z,28.60
2019-03-31T16:43:37.566Z,28.60
2019-03-31T16:46:09.960Z,28.60
2019-03-31T16:48:42.323Z,28.80
2019-03-31T16:51:14.718Z,28.60
2019-03-31T16:53:47.166Z,28.60
2019-03-31T16:56:19.598Z,28.40
2019-03-31T16:58:52.023Z,28.60
2019-03-31T17:01:24.415Z,28.40
2019-03-31T17:03:56.871Z,28.60
2019-03-31T17:06:29.278Z,28.50
2019-03-31T17:09:01.823Z,28.90
2019-03-31T17:11:35.905Z,29.00
2019-03-31T17:14:08.339Z,29.20
2019-03-31T17:16:40.759Z,30.20
2019-03-31T17:19:13.198Z,30.40
2019-03-31T17:21:45.616Z,31.10
2019-03-31T17:24:18.069Z,31.30
2019-03-31T17:26:50.414Z,31.80
2019-03-31T17:29:22.874Z,32.70
2019-03-31T17:31:55.284Z,32.40
2019-03-31T17:34:27.768Z,32.50
2019-03-31T17:37:00.171Z,32.70
2019-03-31T17:39:32.614Z,33.40
2019-03-31T17:42:05.125Z,32.90
2019-03-31T17:44:37.486Z,33.20
2019-03-31T17:47:09.922Z,33.40
2019-03-31T17:49:42.358Z,33.60
2019-03-31T17:52:14.853Z,33.50
2019-03-31T17:54:47.637Z,33.70
2019-03-31T17:57:20.168Z,33.90
2019-03-31T17:59:53.771Z,33.80
2019-03-31T18:02:26.928Z,33.90
2019-03-31T18:04:59.610Z,34.10
2019-03-31T18:07:35.476Z,34.10
2019-03-31T18:10:21.066Z,34.40
2019-03-31T18:12:53.237Z,34.40
2019-03-31T18:15:25.682Z,34.40
2019-03-31T18:17:59.331Z,34.50
2019-03-31T18:20:31.749Z,34.60
2019-03-31T18:23:04.265Z,37.40
2019-03-31T18:25:36.697Z,36.10
2019-03-31T18:28:09.218Z,35.70
2019-03-31T18:30:41.644Z,35.40
2019-03-31T18:33:14.064Z,35.40
2019-03-31T18:35:46.508Z,35.30
2019-03-31T18:38:18.922Z,35.30
2019-03-31T18:40:51.356Z,35.20
2019-03-31T18:43:23.771Z,35.40
2019-03-31T18:45:56.158Z,35.30
2019-03-31T18:48:28.647Z,35.30
2019-03-31T18:51:01.099Z,35.30
2019-03-31T18:53:50.735Z,35.30
2019-03-31T18:56:51.311Z,35.30
2019-03-31T18:59:38.627Z,35.30
2019-03-31T19:02:30.908Z,35.40
2019-03-31T19:05:24.655Z,35.40
2019-03-31T19:08:14.799Z,35.40
2019-03-31T19:10:56.550Z,35.40
2019-03-31T19:13:55.115Z,35.40
2019-03-31T19:16:53.304Z,35.60
2019-03-31T19:19:44.654Z,35.50
2019-03-31T19:22:39.041Z,35.60
2019-03-31T19:25:30.387Z,35.50
2019-03-31T19:28:11.459Z,35.50
2019-03-31T19:30:50.423Z,35.60
2019-03-31T19:33:35.354Z,35.70
2019-03-31T19:36:17.112Z,35.70
2019-03-31T19:39:12.194Z,35.60
2019-03-31T19:42:15.699Z,35.70
2019-03-31T19:44:59.845Z,35.60
2019-03-31T19:48:06.238Z,35.80
2019-03-31T19:51:03.653Z,35.80
2019-03-31T19:54:10.343Z,35.60
2019-03-31T19:56:48.490Z,35.70
2019-03-31T19:59:55.248Z,35.70
2019-03-31T20:02:45.483Z,35.80
2019-03-31T20:05:32.142Z,35.80
2019-03-31T20:08:25.774Z,35.90
2019-03-31T20:11:29.342Z,35.90
2019-03-31T20:14:22.888Z,35.90
2019-03-31T20:17:20.304Z,35.90
2019-03-31T20:20:14.736Z,36.00
2019-03-31T20:23:07.270Z,36.10
2019-03-31T20:26:01.859Z,36.10
2019-03-31T20:28:42.976Z,36.20
2019-03-31T20:31:35.774Z,36.10
2019-03-31T20:34:17.196Z,36.10
2019-03-31T20:37:16.219Z,36.20
2019-03-31T20:40:10.556Z,36.20
2019-03-31T20:43:01.658Z,36.20
2019-03-31T20:45:34.144Z,36.10
2019-03-31T20:48:06.708Z,36.10
2019-03-31T20:50:39.105Z,36.30
2019-03-31T20:53:11.523Z,36.20
2019-03-31T20:55:44.003Z,36.40
2019-03-31T20:58:17.611Z,36.30
2019-03-31T21:00:50.047Z,36.30
2019-03-31T21:03:22.497Z,36.40
2019-03-31T21:05:54.949Z,36.50
2019-03-31T21:08:27.306Z,36.40
2019-03-31T21:10:59.713Z,36.40
2019-03-31T21:13:32.175Z,36.30
2019-03-31T21:16:04.745Z,36.40
2019-03-31T21:18:37.159Z,36.40
2019-03-31T21:21:09.584Z,36.40
2019-03-31T21:23:42.001Z,36.40
2019-03-31T21:26:14.441Z,36.40
2019-03-31T21:28:46.872Z,36.40
2019-03-31T21:31:19.304Z,37.00
2019-03-31T21:33:51.794Z,36.50
2019-03-31T21:36:24.228Z,36.40
2019-03-31T21:38:56.642Z,36.40
2019-03-31T21:41:29.083Z,36.40
2019-03-31T21:44:01.502Z,36.30
2019-03-31T21:46:33.958Z,36.30
2019-03-31T21:49:06.397Z,36.40
2019-03-31T21:51:38.837Z,36.50
2019-03-31T21:54:11.323Z,36.50
2019-03-31T21:56:43.785Z,36.50
2019-03-31T21:59:16.227Z,36.30
2019-03-31T22:01:48.943Z,36.40
2019-03-31T22:04:21.463Z,36.30
2019-03-31T22:06:53.980Z,36.20
2019-03-31T22:09:26.385Z,36.20
2019-03-31T22:11:58.741Z,36.10
2019-03-31T22:14:31.153Z,36.80
2019-03-31T22:17:03.615Z,36.10
2019-03-31T22:19:36.022Z,36.10
2019-03-31T22:22:08.456Z,36.10
2019-03-31T22:24:40.897Z,36.10
2019-03-31T22:27:13.379Z,36.00
2019-03-31T22:29:45.822Z,36.20
2019-03-31T22:32:18.184Z,36.00
2019-03-31T22:34:50.599Z,36.10
2019-03-31T22:37:23.025Z,35.90
2019-03-31T22:39:55.440Z,35.80
2019-03-31T22:42:27.874Z,35.90
2019-03-31T22:45:00.391Z,35.90
2019-03-31T22:47:34.234Z,36.00
2019-03-31T22:50:06.648Z,36.10
2019-03-31T22:52:39.089Z,36.10
2019-03-31T22:55:11.499Z,36.10
2019-03-31T22:57:44.030Z,36.20
2019-03-31T23:00:22.179Z,36.30
2019-03-31T23:02:56.213Z,36.20
2019-03-31T23:05:28.625Z,36.20
2019-03-31T23:08:01.093Z,36.20
2019-03-31T23:10:33.507Z,36.30
2019-03-31T23:13:05.944Z,36.50
2019-03-31T23:15:38.400Z,36.50
2019-03-31T23:18:10.835Z,36.70
2019-03-31T23:20:43.248Z,35.90
2019-03-31T23:23:15.642Z,36.60
2019-03-31T23:25:48.104Z,36.80
2019-03-31T23:28:21.596Z,36.80
2019-03-31T23:30:57.144Z,37.00
2019-03-31T23:33:29.638Z,37.60
2019-03-31T23:36:02.049Z,37.10
2019-03-31T23:38:34.594Z,36.90
2019-03-31T23:41:07.010Z,36.90
2019-03-31T23:43:39.461Z,36.90
2019-03-31T23:46:11.955Z,37.10
2019-03-31T23:48:44.500Z,37.20
2019-03-31T23:51:16.912Z,37.00
2019-03-31T23:53:49.352Z,37.10
2019-03-31T23:56:21.822Z,37.00
2019-03-31T23:58:54.239Z,37.30
